sensor_id;sensor_type;location;lat;lon;timestamp;temperature;humidity
11047;DHT22;5576;50.008;10.596;2023-07-31T00:01:19;17.60;99.90
11047;DHT22;5576;50.008;10.596;2023-07-31T00:03:45;17.50;99.90
11047;DHT22;5576;50.008;10.596;2023-07-31T00:06:12;17.50;99.90
11047;DHT22;5576;50.008;10.596;2023-07-31T00:08:38;17.40;99.90
11047;DHT22;5576;50.008;10.596;2023-07-31T00:11:03;13.00;99.90
11047;DHT22;5576;50.008;10.596;2023-07-31T00:13:29;17.50;99.90
11047;DHT22;5576;50.008;10.596;2023-07-31T00:15:55;13.90;99.90
11047;DHT22;5576;50.008;10.596;2023-07-31T00:18:21;17.50;99.90
11047;DHT22;5576;50.008;10.596;2023-07-31T00:20:47;17.60;99.90
11047;DHT22;5576;50.008;10.596;2023-07-31T00:23:12;17.50;99.90
11047;DHT22;5576;50.008;10.596;2023-07-31T00:25:38;19.80;99.90
11047;DHT22;5576;50.008;10.596;2023-07-31T00:28:04;17.60;99.90
11047;DHT22;5576;50.008;10.596;2023-07-31T00:30:30;17.50;99.90
11047;DHT22;5576;50.008;10.596;2023-07-31T00:32:55;20.20;99.90
11047;DHT22;5576;50.008;10.596;2023-07-31T00:35:21;17.60;99.90
11047;DHT22;5576;50.008;10.596;2023-07-31T00:37:47;17.70;99.90
11047;DHT22;5576;50.008;10.596;2023-07-31T00:40:13;15.20;99.90
11047;DHT22;5576;50.008;10.596;2023-07-31T00:42:39;17.70;99.90
11047;DHT22;5576;50.008;10.596;2023-07-31T00:45:05;14.00;99.90
11047;DHT22;5576;50.008;10.596;2023-07-31T00:47:31;17.70;99.90
11047;DHT22;5576;50.008;10.596;2023-07-31T00:49:57;17.70;99.90
11047;DHT22;5576;50.008;10.596;2023-07-31T00:52:23;17.80;99.90
11047;DHT22;5576;50.008;10.596;2023-07-31T00:54:49;17.90;99.90
11047;DHT22;5576;50.008;10.596;2023-07-31T00:57:16;17.90;99.90
11047;DHT22;5576;50.008;10.596;2023-07-31T00:59:41;17.90;99.90
11047;DHT22;5576;50.008;10.596;2023-07-31T01:02:07;17.90;99.90
11047;DHT22;5576;50.008;10.596;2023-07-31T01:04:33;15.60;99.90
11047;DHT22;5576;50.008;10.596;2023-07-31T01:07:09;18.00;99.90
11047;DHT22;5576;50.008;10.596;2023-07-31T01:09:44;17.90;99.90
11047;DHT22;5576;50.008;10.596;2023-07-31T01:12:14;17.90;99.90
11047;DHT22;5576;50.008;10.596;2023-07-31T01:14:42;18.00;99.90
11047;DHT22;5576;50.008;10.596;2023-07-31T01:17:15;18.00;99.90
11047;DHT22;5576;50.008;10.596;2023-07-31T01:19:42;18.00;99.90
11047;DHT22;5576;50.008;10.596;2023-07-31T01:27:51;18.00;99.90
11047;DHT22;5576;50.008;10.596;2023-07-31T01:30:22;18.00;99.90
11047;DHT22;5576;50.008;10.596;2023-07-31T01:32:51;18.60;99.90
11047;DHT22;5576;50.008;10.596;2023-07-31T01:35:18;18.10;99.90
11047;DHT22;5576;50.008;10.596;2023-07-31T01:37:45;18.10;99.90
11047;DHT22;5576;50.008;10.596;2023-07-31T01:40:11;21.20;99.90
11047;DHT22;5576;50.008;10.596;2023-07-31T01:42:37;18.10;99.90
11047;DHT22;5576;50.008;10.596;2023-07-31T01:45:02;18.10;99.90
11047;DHT22;5576;50.008;10.596;2023-07-31T01:47:28;18.10;99.90
11047;DHT22;5576;50.008;10.596;2023-07-31T01:49:54;18.10;99.90
11047;DHT22;5576;50.008;10.596;2023-07-31T01:52:20;18.10;99.90
11047;DHT22;5576;50.008;10.596;2023-07-31T01:54:45;18.10;99.90
11047;DHT22;5576;50.008;10.596;2023-07-31T01:57:11;18.10;99.90
11047;DHT22;5576;50.008;10.596;2023-07-31T01:59:37;14.30;99.90
11047;DHT22;5576;50.008;10.596;2023-07-31T02:02:02;20.30;99.90
11047;DHT22;5576;50.008;10.596;2023-07-31T02:04:29;18.10;99.90
11047;DHT22;5576;50.008;10.596;2023-07-31T02:06:55;18.20;99.90
11047;DHT22;5576;50.008;10.596;2023-07-31T02:09:21;18.20;99.90
11047;DHT22;5576;50.008;10.596;2023-07-31T02:11:46;17.40;99.90
11047;DHT22;5576;50.008;10.596;2023-07-31T02:14:12;18.20;99.90
11047;DHT22;5576;50.008;10.596;2023-07-31T02:16:38;17.50;99.90
11047;DHT22;5576;50.008;10.596;2023-07-31T02:19:03;18.20;99.90
11047;DHT22;5576;50.008;10.596;2023-07-31T02:21:29;18.10;99.90
11047;DHT22;5576;50.008;10.596;2023-07-31T02:23:55;18.10;99.90
11047;DHT22;5576;50.008;10.596;2023-07-31T02:26:21;18.10;99.90
11047;DHT22;5576;50.008;10.596;2023-07-31T02:28:46;18.10;99.90
11047;DHT22;5576;50.008;10.596;2023-07-31T02:31:12;18.10;99.90
11047;DHT22;5576;50.008;10.596;2023-07-31T02:33:39;18.10;99.90
11047;DHT22;5576;50.008;10.596;2023-07-31T02:36:05;18.10;99.90
11047;DHT22;5576;50.008;10.596;2023-07-31T02:38:30;18.10;99.90
11047;DHT22;5576;50.008;10.596;2023-07-31T02:40:56;17.40;99.90
11047;DHT22;5576;50.008;10.596;2023-07-31T02:43:22;18.10;99.90
11047;DHT22;5576;50.008;10.596;2023-07-31T02:45:52;18.20;99.90
11047;DHT22;5576;50.008;10.596;2023-07-31T02:48:18;18.10;99.90
11047;DHT22;5576;50.008;10.596;2023-07-31T02:50:45;18.10;99.90
11047;DHT22;5576;50.008;10.596;2023-07-31T02:53:11;18.60;99.90
11047;DHT22;5576;50.008;10.596;2023-07-31T02:55:36;18.10;99.90
11047;DHT22;5576;50.008;10.596;2023-07-31T02:58:02;18.10;99.90
11047;DHT22;5576;50.008;10.596;2023-07-31T03:00:28;18.10;99.90
11047;DHT22;5576;50.008;10.596;2023-07-31T03:02:53;21.60;99.90
11047;DHT22;5576;50.008;10.596;2023-07-31T03:05:19;18.10;99.90
11047;DHT22;5576;50.008;10.596;2023-07-31T03:07:45;18.10;99.90
11047;DHT22;5576;50.008;10.596;2023-07-31T03:10:11;18.00;99.90
11047;DHT22;5576;50.008;10.596;2023-07-31T03:12:37;18.00;99.90
11047;DHT22;5576;50.008;10.596;2023-07-31T03:15:04;18.90;99.90
11047;DHT22;5576;50.008;10.596;2023-07-31T03:17:30;17.90;99.90
11047;DHT22;5576;50.008;10.596;2023-07-31T03:19:55;17.90;99.90
11047;DHT22;5576;50.008;10.596;2023-07-31T03:22:21;18.00;99.90
11047;DHT22;5576;50.008;10.596;2023-07-31T03:24:47;18.00;99.90
11047;DHT22;5576;50.008;10.596;2023-07-31T03:27:13;18.00;99.90
11047;DHT22;5576;50.008;10.596;2023-07-31T03:29:38;19.90;99.90
11047;DHT22;5576;50.008;10.596;2023-07-31T03:32:04;18.00;99.90
11047;DHT22;5576;50.008;10.596;2023-07-31T03:34:30;18.00;99.90
11047;DHT22;5576;50.008;10.596;2023-07-31T03:36:58;18.00;99.90
11047;DHT22;5576;50.008;10.596;2023-07-31T03:39:23;18.00;99.90
11047;DHT22;5576;50.008;10.596;2023-07-31T03:41:49;18.00;99.90
11047;DHT22;5576;50.008;10.596;2023-07-31T03:44:17;19.40;99.90
11047;DHT22;5576;50.008;10.596;2023-07-31T03:46:42;18.10;99.90
11047;DHT22;5576;50.008;10.596;2023-07-31T03:49:08;18.00;99.90
11047;DHT22;5576;50.008;10.596;2023-07-31T03:51:34;18.00;99.90
11047;DHT22;5576;50.008;10.596;2023-07-31T03:54:00;18.00;99.90
11047;DHT22;5576;50.008;10.596;2023-07-31T03:56:26;17.90;99.90
11047;DHT22;5576;50.008;10.596;2023-07-31T03:58:52;17.90;99.90
11047;DHT22;5576;50.008;10.596;2023-07-31T04:01:18;22.40;99.90
11047;DHT22;5576;50.008;10.596;2023-07-31T04:03:45;17.90;99.90
11047;DHT22;5576;50.008;10.596;2023-07-31T04:06:10;17.90;99.90
11047;DHT22;5576;50.008;10.596;2023-07-31T04:08:36;17.80;99.90
11047;DHT22;5576;50.008;10.596;2023-07-31T04:11:02;17.90;99.90
11047;DHT22;5576;50.008;10.596;2023-07-31T04:13:29;17.80;99.90
11047;DHT22;5576;50.008;10.596;2023-07-31T04:15:55;17.90;99.90
11047;DHT22;5576;50.008;10.596;2023-07-31T04:18:21;17.90;99.90
11047;DHT22;5576;50.008;10.596;2023-07-31T04:20:47;18.00;99.90
11047;DHT22;5576;50.008;10.596;2023-07-31T04:23:13;18.00;99.90
11047;DHT22;5576;50.008;10.596;2023-07-31T04:25:38;18.00;99.90
11047;DHT22;5576;50.008;10.596;2023-07-31T04:28:04;18.00;99.90
11047;DHT22;5576;50.008;10.596;2023-07-31T04:30:30;18.00;99.90
11047;DHT22;5576;50.008;10.596;2023-07-31T04:32:55;18.00;99.90
11047;DHT22;5576;50.008;10.596;2023-07-31T04:35:21;17.90;99.90
11047;DHT22;5576;50.008;10.596;2023-07-31T04:37:47;17.90;99.90
11047;DHT22;5576;50.008;10.596;2023-07-31T04:40:15;17.90;99.90
11047;DHT22;5576;50.008;10.596;2023-07-31T04:42:41;17.90;99.90
11047;DHT22;5576;50.008;10.596;2023-07-31T04:45:08;18.00;99.90
11047;DHT22;5576;50.008;10.596;2023-07-31T04:47:34;17.90;99.90
11047;DHT22;5576;50.008;10.596;2023-07-31T04:50:00;17.90;99.90
11047;DHT22;5576;50.008;10.596;2023-07-31T04:52:26;18.00;99.90
11047;DHT22;5576;50.008;10.596;2023-07-31T04:54:51;18.00;99.90
11047;DHT22;5576;50.008;10.596;2023-07-31T04:57:17;18.00;99.90
11047;DHT22;5576;50.008;10.596;2023-07-31T04:59:43;18.00;99.90
11047;DHT22;5576;50.008;10.596;2023-07-31T05:02:09;18.00;99.90
11047;DHT22;5576;50.008;10.596;2023-07-31T05:04:35;18.10;99.90
11047;DHT22;5576;50.008;10.596;2023-07-31T05:07:00;18.10;99.90
11047;DHT22;5576;50.008;10.596;2023-07-31T05:09:26;18.10;99.90
11047;DHT22;5576;50.008;10.596;2023-07-31T05:11:52;16.00;99.90
11047;DHT22;5576;50.008;10.596;2023-07-31T05:14:17;17.90;99.90
11047;DHT22;5576;50.008;10.596;2023-07-31T05:16:43;21.20;99.90
11047;DHT22;5576;50.008;10.596;2023-07-31T05:19:09;18.00;99.90
11047;DHT22;5576;50.008;10.596;2023-07-31T05:21:34;18.00;99.90
11047;DHT22;5576;50.008;10.596;2023-07-31T05:24:00;18.00;99.90
11047;DHT22;5576;50.008;10.596;2023-07-31T05:26:26;18.10;99.90
11047;DHT22;5576;50.008;10.596;2023-07-31T05:28:51;18.00;99.90
11047;DHT22;5576;50.008;10.596;2023-07-31T05:31:17;18.10;99.90
11047;DHT22;5576;50.008;10.596;2023-07-31T05:33:43;17.60;99.90
11047;DHT22;5576;50.008;10.596;2023-07-31T05:36:09;18.10;99.90
11047;DHT22;5576;50.008;10.596;2023-07-31T05:38:34;18.10;99.90
11047;DHT22;5576;50.008;10.596;2023-07-31T05:41:00;18.10;99.90
11047;DHT22;5576;50.008;10.596;2023-07-31T05:43:26;18.20;99.90
11047;DHT22;5576;50.008;10.596;2023-07-31T05:45:52;18.20;99.90
11047;DHT22;5576;50.008;10.596;2023-07-31T05:48:17;18.20;99.90
11047;DHT22;5576;50.008;10.596;2023-07-31T05:50:43;18.10;99.90
11047;DHT22;5576;50.008;10.596;2023-07-31T05:53:09;18.20;99.90
11047;DHT22;5576;50.008;10.596;2023-07-31T05:55:36;18.10;99.90
11047;DHT22;5576;50.008;10.596;2023-07-31T05:58:01;18.10;99.90
11047;DHT22;5576;50.008;10.596;2023-07-31T06:00:27;18.30;99.90
11047;DHT22;5576;50.008;10.596;2023-07-31T06:02:53;21.70;99.90
11047;DHT22;5576;50.008;10.596;2023-07-31T06:05:19;18.30;99.90
11047;DHT22;5576;50.008;10.596;2023-07-31T06:07:45;18.40;99.90
11047;DHT22;5576;50.008;10.596;2023-07-31T06:10:10;18.40;99.90
11047;DHT22;5576;50.008;10.596;2023-07-31T06:12:36;18.30;99.90
11047;DHT22;5576;50.008;10.596;2023-07-31T06:15:03;18.30;99.90
11047;DHT22;5576;50.008;10.596;2023-07-31T06:17:29;18.40;99.90
11047;DHT22;5576;50.008;10.596;2023-07-31T06:19:56;16.30;99.90
11047;DHT22;5576;50.008;10.596;2023-07-31T06:22:22;18.50;99.90
11047;DHT22;5576;50.008;10.596;2023-07-31T06:24:48;19.50;99.90
11047;DHT22;5576;50.008;10.596;2023-07-31T06:27:14;17.90;99.90
11047;DHT22;5576;50.008;10.596;2023-07-31T06:29:40;18.50;99.90
11047;DHT22;5576;50.008;10.596;2023-07-31T06:32:06;18.50;99.90
11047;DHT22;5576;50.008;10.596;2023-07-31T06:34:32;18.60;99.90
11047;DHT22;5576;50.008;10.596;2023-07-31T06:36:58;18.60;99.90
11047;DHT22;5576;50.008;10.596;2023-07-31T06:39:23;18.60;99.90
11047;DHT22;5576;50.008;10.596;2023-07-31T06:41:49;18.60;99.90
11047;DHT22;5576;50.008;10.596;2023-07-31T06:44:16;18.50;99.90
11047;DHT22;5576;50.008;10.596;2023-07-31T06:46:42;18.60;99.90
11047;DHT22;5576;50.008;10.596;2023-07-31T06:49:08;18.60;99.90
11047;DHT22;5576;50.008;10.596;2023-07-31T06:51:34;22.90;99.90
11047;DHT22;5576;50.008;10.596;2023-07-31T06:54:01;18.60;99.90
11047;DHT22;5576;50.008;10.596;2023-07-31T06:56:27;18.60;99.90
11047;DHT22;5576;50.008;10.596;2023-07-31T06:58:53;18.70;99.90
11047;DHT22;5576;50.008;10.596;2023-07-31T07:01:18;18.80;99.90
11047;DHT22;5576;50.008;10.596;2023-07-31T07:03:44;18.90;99.90
11047;DHT22;5576;50.008;10.596;2023-07-31T07:06:10;19.00;99.90
11047;DHT22;5576;50.008;10.596;2023-07-31T07:08:36;19.00;99.90
11047;DHT22;5576;50.008;10.596;2023-07-31T07:11:01;19.00;99.90
11047;DHT22;5576;50.008;10.596;2023-07-31T07:13:27;19.10;99.90
11047;DHT22;5576;50.008;10.596;2023-07-31T07:15:53;19.10;99.90
11047;DHT22;5576;50.008;10.596;2023-07-31T07:18:18;19.20;99.90
11047;DHT22;5576;50.008;10.596;2023-07-31T07:20:50;19.20;99.90
11047;DHT22;5576;50.008;10.596;2023-07-31T07:23:15;19.20;99.90
11047;DHT22;5576;50.008;10.596;2023-07-31T07:25:42;19.20;99.90
11047;DHT22;5576;50.008;10.596;2023-07-31T07:28:08;19.20;99.90
11047;DHT22;5576;50.008;10.596;2023-07-31T07:30:34;19.20;99.90
11047;DHT22;5576;50.008;10.596;2023-07-31T07:33:00;19.20;99.90
11047;DHT22;5576;50.008;10.596;2023-07-31T07:35:26;19.10;99.90
11047;DHT22;5576;50.008;10.596;2023-07-31T07:37:51;19.20;99.90
11047;DHT22;5576;50.008;10.596;2023-07-31T07:40:17;19.20;99.90
11047;DHT22;5576;50.008;10.596;2023-07-31T07:42:43;19.30;99.90
11047;DHT22;5576;50.008;10.596;2023-07-31T07:45:09;19.40;99.90
11047;DHT22;5576;50.008;10.596;2023-07-31T07:47:35;19.40;99.90
11047;DHT22;5576;50.008;10.596;2023-07-31T07:50:01;19.40;99.90
11047;DHT22;5576;50.008;10.596;2023-07-31T07:52:26;16.70;99.90
11047;DHT22;5576;50.008;10.596;2023-07-31T07:54:52;19.50;99.90
11047;DHT22;5576;50.008;10.596;2023-07-31T07:57:18;19.60;99.90
11047;DHT22;5576;50.008;10.596;2023-07-31T07:59:44;22.90;99.90
11047;DHT22;5576;50.008;10.596;2023-07-31T08:02:09;19.70;99.90
11047;DHT22;5576;50.008;10.596;2023-07-31T08:04:35;19.60;99.90
11047;DHT22;5576;50.008;10.596;2023-07-31T08:07:01;19.70;99.90
11047;DHT22;5576;50.008;10.596;2023-07-31T08:09:26;19.70;99.90
11047;DHT22;5576;50.008;10.596;2023-07-31T08:11:52;19.70;99.90
11047;DHT22;5576;50.008;10.596;2023-07-31T08:14:18;19.80;99.90
11047;DHT22;5576;50.008;10.596;2023-07-31T08:16:43;18.80;99.90
11047;DHT22;5576;50.008;10.596;2023-07-31T08:19:09;19.80;99.90
11047;DHT22;5576;50.008;10.596;2023-07-31T08:21:35;19.90;99.90
11047;DHT22;5576;50.008;10.596;2023-07-31T08:24:01;19.90;99.90
11047;DHT22;5576;50.008;10.596;2023-07-31T08:26:26;20.20;99.90
11047;DHT22;5576;50.008;10.596;2023-07-31T08:28:52;20.10;99.90
11047;DHT22;5576;50.008;10.596;2023-07-31T08:31:19;20.30;99.90
11047;DHT22;5576;50.008;10.596;2023-07-31T08:33:45;20.30;99.90
11047;DHT22;5576;50.008;10.596;2023-07-31T08:36:10;20.40;99.90
11047;DHT22;5576;50.008;10.596;2023-07-31T08:38:36;20.40;99.90
11047;DHT22;5576;50.008;10.596;2023-07-31T08:41:04;20.40;99.90
11047;DHT22;5576;50.008;10.596;2023-07-31T08:43:30;20.50;99.90
11047;DHT22;5576;50.008;10.596;2023-07-31T08:45:56;20.50;99.90
11047;DHT22;5576;50.008;10.596;2023-07-31T08:48:23;20.60;99.90
11047;DHT22;5576;50.008;10.596;2023-07-31T08:50:51;20.80;99.90
11047;DHT22;5576;50.008;10.596;2023-07-31T08:53:16;20.80;99.90
11047;DHT22;5576;50.008;10.596;2023-07-31T08:55:44;21.10;99.90
11047;DHT22;5576;50.008;10.596;2023-07-31T08:58:10;21.30;99.90
11047;DHT22;5576;50.008;10.596;2023-07-31T09:00:40;21.40;99.90
11047;DHT22;5576;50.008;10.596;2023-07-31T09:03:13;21.40;99.90
11047;DHT22;5576;50.008;10.596;2023-07-31T09:05:43;21.30;99.90
11047;DHT22;5576;50.008;10.596;2023-07-31T09:08:10;21.10;99.90
11047;DHT22;5576;50.008;10.596;2023-07-31T09:10:42;21.10;99.90
11047;DHT22;5576;50.008;10.596;2023-07-31T09:13:09;21.10;99.90
11047;DHT22;5576;50.008;10.596;2023-07-31T09:15:36;21.10;99.90
11047;DHT22;5576;50.008;10.596;2023-07-31T09:18:03;20.70;99.90
11047;DHT22;5576;50.008;10.596;2023-07-31T09:20:31;24.90;99.90
11047;DHT22;5576;50.008;10.596;2023-07-31T09:23:05;21.10;99.90
11047;DHT22;5576;50.008;10.596;2023-07-31T09:25:31;21.10;99.90
11047;DHT22;5576;50.008;10.596;2023-07-31T09:28:00;18.90;99.90
11047;DHT22;5576;50.008;10.596;2023-07-31T09:30:26;21.10;99.90
11047;DHT22;5576;50.008;10.596;2023-07-31T09:33:01;21.00;99.90
11047;DHT22;5576;50.008;10.596;2023-07-31T09:35:29;20.90;99.90
11047;DHT22;5576;50.008;10.596;2023-07-31T09:37:58;20.90;99.90
11047;DHT22;5576;50.008;10.596;2023-07-31T09:40:29;21.00;99.90
11047;DHT22;5576;50.008;10.596;2023-07-31T09:42:58;23.60;99.90
11047;DHT22;5576;50.008;10.596;2023-07-31T09:45:24;21.00;99.90
11047;DHT22;5576;50.008;10.596;2023-07-31T09:47:51;21.10;99.90
11047;DHT22;5576;50.008;10.596;2023-07-31T09:50:17;21.20;99.90
11047;DHT22;5576;50.008;10.596;2023-07-31T09:52:43;21.20;99.90
11047;DHT22;5576;50.008;10.596;2023-07-31T09:55:10;21.40;99.90
11047;DHT22;5576;50.008;10.596;2023-07-31T09:57:40;21.30;99.90
11047;DHT22;5576;50.008;10.596;2023-07-31T10:00:08;21.30;99.90
11047;DHT22;5576;50.008;10.596;2023-07-31T10:02:38;21.40;99.90
11047;DHT22;5576;50.008;10.596;2023-07-31T10:05:06;21.40;99.90
11047;DHT22;5576;50.008;10.596;2023-07-31T10:07:37;21.60;99.90
11047;DHT22;5576;50.008;10.596;2023-07-31T10:10:07;21.60;99.90
11047;DHT22;5576;50.008;10.596;2023-07-31T10:12:34;21.80;99.90
11047;DHT22;5576;50.008;10.596;2023-07-31T10:15:00;22.00;99.90
11047;DHT22;5576;50.008;10.596;2023-07-31T10:17:26;22.10;99.90
11047;DHT22;5576;50.008;10.596;2023-07-31T10:19:53;22.10;99.90
11047;DHT22;5576;50.008;10.596;2023-07-31T10:22:21;22.00;99.90
11047;DHT22;5576;50.008;10.596;2023-07-31T10:24:48;19.20;99.90
11047;DHT22;5576;50.008;10.596;2023-07-31T10:27:14;22.00;99.90
11047;DHT22;5576;50.008;10.596;2023-07-31T10:29:41;26.10;99.90
11047;DHT22;5576;50.008;10.596;2023-07-31T10:32:09;22.00;99.90
11047;DHT22;5576;50.008;10.596;2023-07-31T10:34:39;22.10;99.90
11047;DHT22;5576;50.008;10.596;2023-07-31T10:37:21;22.30;99.90
11047;DHT22;5576;50.008;10.596;2023-07-31T10:42:37;22.30;99.90
11047;DHT22;5576;50.008;10.596;2023-07-31T10:45:07;22.20;99.90
11047;DHT22;5576;50.008;10.596;2023-07-31T10:47:37;21.20;99.90
11047;DHT22;5576;50.008;10.596;2023-07-31T10:50:21;21.30;99.90
11047;DHT22;5576;50.008;10.596;2023-07-31T10:52:57;22.00;99.90
11047;DHT22;5576;50.008;10.596;2023-07-31T10:55:43;22.00;99.90
11047;DHT22;5576;50.008;10.596;2023-07-31T10:58:12;21.40;99.90
11047;DHT22;5576;50.008;10.596;2023-07-31T11:00:40;21.90;99.90
11047;DHT22;5576;50.008;10.596;2023-07-31T11:03:08;22.00;99.90
11047;DHT22;5576;50.008;10.596;2023-07-31T11:11:04;21.70;99.90
11047;DHT22;5576;50.008;10.596;2023-07-31T11:16:00;23.20;99.90
11047;DHT22;5576;50.008;10.596;2023-07-31T11:18:26;21.60;99.90
11047;DHT22;5576;50.008;10.596;2023-07-31T11:20:53;21.60;99.90
11047;DHT22;5576;50.008;10.596;2023-07-31T11:23:19;21.40;99.90
11047;DHT22;5576;50.008;10.596;2023-07-31T11:25:46;21.40;99.90
11047;DHT22;5576;50.008;10.596;2023-07-31T11:28:13;25.80;99.90
11047;DHT22;5576;50.008;10.596;2023-07-31T11:30:40;21.30;99.90
11047;DHT22;5576;50.008;10.596;2023-07-31T11:33:07;21.20;99.90
11047;DHT22;5576;50.008;10.596;2023-07-31T11:35:35;21.20;99.90
11047;DHT22;5576;50.008;10.596;2023-07-31T11:38:01;21.20;99.90
11047;DHT22;5576;50.008;10.596;2023-07-31T11:40:27;21.10;99.90
11047;DHT22;5576;50.008;10.596;2023-07-31T11:42:58;21.10;99.90
11047;DHT22;5576;50.008;10.596;2023-07-31T11:45:30;21.00;99.90
11047;DHT22;5576;50.008;10.596;2023-07-31T11:47:56;20.90;99.90
11047;DHT22;5576;50.008;10.596;2023-07-31T11:50:23;23.60;99.90
11047;DHT22;5576;50.008;10.596;2023-07-31T11:52:54;22.90;99.90
11047;DHT22;5576;50.008;10.596;2023-07-31T11:55:21;20.80;99.90
11047;DHT22;5576;50.008;10.596;2023-07-31T11:57:47;20.70;99.90
11047;DHT22;5576;50.008;10.596;2023-07-31T12:00:14;20.70;99.90
11047;DHT22;5576;50.008;10.596;2023-07-31T12:02:40;20.70;99.90
11047;DHT22;5576;50.008;10.596;2023-07-31T12:05:11;21.80;99.90
11047;DHT22;5576;50.008;10.596;2023-07-31T12:07:55;20.80;99.90
11047;DHT22;5576;50.008;10.596;2023-07-31T12:10:29;18.10;99.90
11047;DHT22;5576;50.008;10.596;2023-07-31T12:13:04;20.90;99.90
11047;DHT22;5576;50.008;10.596;2023-07-31T12:15:36;21.00;99.90
11047;DHT22;5576;50.008;10.596;2023-07-31T12:18:05;21.10;99.90
11047;DHT22;5576;50.008;10.596;2023-07-31T12:20:32;21.20;99.90
11047;DHT22;5576;50.008;10.596;2023-07-31T12:22:57;21.10;99.90
11047;DHT22;5576;50.008;10.596;2023-07-31T12:25:30;21.10;99.90
11047;DHT22;5576;50.008;10.596;2023-07-31T12:27:56;21.10;99.90
11047;DHT22;5576;50.008;10.596;2023-07-31T12:30:31;21.10;99.90
11047;DHT22;5576;50.008;10.596;2023-07-31T12:32:57;18.00;99.90
11047;DHT22;5576;50.008;10.596;2023-07-31T12:35:23;21.10;99.90
11047;DHT22;5576;50.008;10.596;2023-07-31T12:37:49;21.10;99.90
11047;DHT22;5576;50.008;10.596;2023-07-31T12:40:14;21.10;99.90
11047;DHT22;5576;50.008;10.596;2023-07-31T12:42:41;21.20;99.90
11047;DHT22;5576;50.008;10.596;2023-07-31T12:45:07;21.30;99.90
11047;DHT22;5576;50.008;10.596;2023-07-31T12:47:33;21.40;99.90
11047;DHT22;5576;50.008;10.596;2023-07-31T12:49:59;21.40;99.90
11047;DHT22;5576;50.008;10.596;2023-07-31T12:52:24;21.50;99.90
11047;DHT22;5576;50.008;10.596;2023-07-31T12:54:50;21.50;99.90
11047;DHT22;5576;50.008;10.596;2023-07-31T12:57:16;21.60;99.90
11047;DHT22;5576;50.008;10.596;2023-07-31T12:59:41;21.80;99.90
11047;DHT22;5576;50.008;10.596;2023-07-31T13:02:07;22.00;99.90
11047;DHT22;5576;50.008;10.596;2023-07-31T13:04:33;22.10;99.90
11047;DHT22;5576;50.008;10.596;2023-07-31T13:06:58;22.70;99.90
11047;DHT22;5576;50.008;10.596;2023-07-31T13:09:24;22.40;99.90
11047;DHT22;5576;50.008;10.596;2023-07-31T13:11:50;22.40;99.90
11047;DHT22;5576;50.008;10.596;2023-07-31T13:14:16;22.60;99.90
11047;DHT22;5576;50.008;10.596;2023-07-31T13:16:42;22.60;99.90
11047;DHT22;5576;50.008;10.596;2023-07-31T13:19:08;22.60;99.90
11047;DHT22;5576;50.008;10.596;2023-07-31T13:21:33;22.70;99.90
11047;DHT22;5576;50.008;10.596;2023-07-31T13:24:02;22.90;99.90
11047;DHT22;5576;50.008;10.596;2023-07-31T13:26:29;23.20;99.90
11047;DHT22;5576;50.008;10.596;2023-07-31T13:28:55;23.20;99.90
11047;DHT22;5576;50.008;10.596;2023-07-31T13:31:20;23.30;99.90
11047;DHT22;5576;50.008;10.596;2023-07-31T13:33:46;23.30;99.90
11047;DHT22;5576;50.008;10.596;2023-07-31T13:36:12;23.60;99.90
11047;DHT22;5576;50.008;10.596;2023-07-31T13:38:39;20.30;99.90
11047;DHT22;5576;50.008;10.596;2023-07-31T13:41:05;23.20;99.90
11047;DHT22;5576;50.008;10.596;2023-07-31T13:43:31;23.20;99.90
11047;DHT22;5576;50.008;10.596;2023-07-31T13:45:57;23.20;99.90
11047;DHT22;5576;50.008;10.596;2023-07-31T13:48:22;23.10;99.90
11047;DHT22;5576;50.008;10.596;2023-07-31T13:50:48;23.10;99.90
11047;DHT22;5576;50.008;10.596;2023-07-31T13:53:14;23.00;99.90
11047;DHT22;5576;50.008;10.596;2023-07-31T13:55:39;23.00;99.90
11047;DHT22;5576;50.008;10.596;2023-07-31T13:58:05;23.00;99.90
11047;DHT22;5576;50.008;10.596;2023-07-31T14:00:31;22.90;99.90
11047;DHT22;5576;50.008;10.596;2023-07-31T14:02:57;22.80;99.90
11047;DHT22;5576;50.008;10.596;2023-07-31T14:05:22;26.10;99.90
11047;DHT22;5576;50.008;10.596;2023-07-31T14:07:48;22.70;99.90
11047;DHT22;5576;50.008;10.596;2023-07-31T14:10:14;22.60;99.90
11047;DHT22;5576;50.008;10.596;2023-07-31T14:12:40;22.60;99.90
11047;DHT22;5576;50.008;10.596;2023-07-31T14:15:06;26.00;99.90
11047;DHT22;5576;50.008;10.596;2023-07-31T14:17:32;22.50;99.90
11047;DHT22;5576;50.008;10.596;2023-07-31T14:19:57;22.40;99.90
11047;DHT22;5576;50.008;10.596;2023-07-31T14:22:31;22.50;99.90
11047;DHT22;5576;50.008;10.596;2023-07-31T14:24:58;22.40;99.90
11047;DHT22;5576;50.008;10.596;2023-07-31T14:27:24;22.30;99.90
11047;DHT22;5576;50.008;10.596;2023-07-31T14:29:50;22.30;99.90
11047;DHT22;5576;50.008;10.596;2023-07-31T14:32:15;22.30;99.90
11047;DHT22;5576;50.008;10.596;2023-07-31T14:34:41;22.20;99.90
11047;DHT22;5576;50.008;10.596;2023-07-31T14:37:07;22.30;99.90
11047;DHT22;5576;50.008;10.596;2023-07-31T14:39:33;22.20;99.90
11047;DHT22;5576;50.008;10.596;2023-07-31T14:41:58;22.20;99.90
11047;DHT22;5576;50.008;10.596;2023-07-31T14:44:24;22.20;99.90
11047;DHT22;5576;50.008;10.596;2023-07-31T14:46:50;22.20;99.90
11047;DHT22;5576;50.008;10.596;2023-07-31T14:49:15;22.20;99.90
11047;DHT22;5576;50.008;10.596;2023-07-31T14:51:41;22.10;99.90
11047;DHT22;5576;50.008;10.596;2023-07-31T14:54:07;22.10;99.90
11047;DHT22;5576;50.008;10.596;2023-07-31T14:56:33;18.30;99.90
11047;DHT22;5576;50.008;10.596;2023-07-31T14:58:58;22.00;99.90
11047;DHT22;5576;50.008;10.596;2023-07-31T15:01:24;22.00;99.90
11047;DHT22;5576;50.008;10.596;2023-07-31T15:03:50;21.90;99.90
11047;DHT22;5576;50.008;10.596;2023-07-31T15:06:16;22.00;99.90
11047;DHT22;5576;50.008;10.596;2023-07-31T15:08:41;25.30;99.90
11047;DHT22;5576;50.008;10.596;2023-07-31T15:11:09;22.00;99.90
11047;DHT22;5576;50.008;10.596;2023-07-31T15:13:35;18.60;99.90
11047;DHT22;5576;50.008;10.596;2023-07-31T15:16:00;18.40;99.90
11047;DHT22;5576;50.008;10.596;2023-07-31T15:18:26;22.00;99.90
11047;DHT22;5576;50.008;10.596;2023-07-31T15:20:53;21.90;99.90
11047;DHT22;5576;50.008;10.596;2023-07-31T15:23:18;21.90;99.90
11047;DHT22;5576;50.008;10.596;2023-07-31T15:25:44;21.90;99.90
11047;DHT22;5576;50.008;10.596;2023-07-31T15:28:10;21.90;99.90
11047;DHT22;5576;50.008;10.596;2023-07-31T15:30:36;21.80;99.90
11047;DHT22;5576;50.008;10.596;2023-07-31T15:33:03;21.90;99.90
11047;DHT22;5576;50.008;10.596;2023-07-31T15:35:29;21.90;99.90
11047;DHT22;5576;50.008;10.596;2023-07-31T15:37:54;21.80;99.90
11047;DHT22;5576;50.008;10.596;2023-07-31T15:40:20;21.80;99.90
11047;DHT22;5576;50.008;10.596;2023-07-31T15:42:46;21.80;99.90